Data for 06/12/2016

Time Sea-Level Adjusted Pressure Absolute Pressure Temperature Relative Humidity Dew Point   
(mb) (inHg) (mb) (inHg) (C) (F) (%) (C) (F)
00:05 1022 30.18 851 25.13 11.6 53 79 8.1 46.5
00:10 1022 30.18 851 25.13 11.6 52.8 78 7.8 46.1
00:15 1022 30.18 851 25.13 11.5 52.8 78 7.9 46.3
00:20 1022 30.18 851 25.13 11.5 52.7 78 7.8 46.1
00:25 1022 30.18 852 25.16 11.4 52.6 79 7.9 46.2
00:30 1022 30.18 852 25.16 11.4 52.5 79 7.9 46.2
00:35 1022 30.18 852 25.16 11.3 52.4 80 8 46.4
00:40 1022 30.18 852 25.16 11.3 52.3 80 8 46.5
00:45 1022 30.18 852 25.16 11.2 52.2 81 8.2 46.7
00:50 1022 30.18 852 25.16 11.2 52.1 82 8.2 46.7
00:55 1022 30.18 852 25.16 11.2 52.1 82 8.3 46.9
01:00 1023 30.21 852 25.16 11.1 52 83 8.4 47
01:05 1023 30.21 852 25.16 11 51.7 84 8.3 47
01:10 1023 30.21 852 25.16 11 51.7 84 8.3 47
01:15 1023 30.21 852 25.16 10.9 51.5 83 8.1 46.6
01:20 1023 30.21 852 25.16 10.9 51.6 83 8.1 46.6
01:25 1023 30.21 852 25.16 10.8 51.4 76 6.8 44.2
01:30 1023 30.21 852 25.16 10.5 50.9 75 6.4 43.4
01:35 1023 30.21 852 25.16 10 50 78 6.4 43.5
01:40 1023 30.21 852 25.16 9.7 49.4 79 6.2 43.1
01:45 1023 30.21 852 25.16 9.5 49 80 6.1 43
01:50 1023 30.21 852 25.16 9.3 48.7 79 5.9 42.6
01:55 1023 30.21 852 25.16 9.2 48.6 80 6 42.8
02:00 1023 30.21 852 25.16 9.2 48.5 78 5.6 42.1
02:05 1023 30.21 852 25.16 9.1 48.4 78 5.5 41.8
02:10 1023 30.21 852 25.16 9.1 48.3 76 5.1 41.1
02:15 1023 30.21 852 25.16 8.9 48 75 4.8 40.6
02:20 1023 30.21 853 25.19 8.9 48 77 5 41.1
02:25 1023 30.21 853 25.19 8.9 48 77 5.1 41.3
02:30 1023 30.21 853 25.19 8.9 48 78 5.2 41.4
02:35 1024 30.24 853 25.19 8.9 48 78 5.2 41.4
02:40 1024 30.24 853 25.19 8.9 48 78 5.2 41.4
02:45 1024 30.24 853 25.19 9 48.1 74 4.6 40.3
02:50 1024 30.24 853 25.19 9 48.2 74 4.6 40.3
02:55 1024 30.24 853 25.19 9.1 48.3 74 4.6 40.3
03:00 1024 30.24 853 25.19 9 48.2 74 4.7 40.4
03:05 1024 30.24 853 25.19 8.9 48 74 4.5 40.1
03:10 1024 30.24 853 25.19 8.8 47.8 75 4.7 40.5
03:15 1024 30.24 853 25.19 8.7 47.7 77 4.8 40.7
03:20 1024 30.24 853 25.19 8.6 47.5 76 4.7 40.4
03:25 1024 30.24 853 25.19 8.5 47.2 76 4.6 40.2
03:30 1024 30.24 853 25.19 8.4 47.2 76 4.5 40.1
03:35 1024 30.24 853 25.19 8.4 47.2 77 4.6 40.3
03:40 1024 30.24 853 25.19 8.4 47.2 76 4.4 40
03:45 1024 30.24 853 25.19 8.4 47.2 75 4.3 39.7
03:50 1024 30.24 853 25.19 8.4 47.2 77 4.6 40.2
03:55 1024 30.24 853 25.19 8.3 46.9 77 4.5 40
04:00 1024 30.24 853 25.19 8.3 47 77 4.6 40.3
04:05 1024 30.24 853 25.19 8.4 47 76 4.4 39.9
04:10 1024 30.24 853 25.19 8.4 47 75 4.2 39.6
04:15 1024 30.24 853 25.19 8.3 46.9 75 4.2 39.6
04:20 1024 30.24 853 25.19 8.2 46.8 76 4.2 39.5
04:25 1024 30.24 853 25.19 8.3 47 75 4.3 39.7
04:30 1024 30.24 854 25.22 8.3 47 75 4.1 39.5
04:35 1024 30.24 854 25.22 8.3 46.9 76 4.2 39.6
04:40 1024 30.24 854 25.22 8.3 46.9 76 4.3 39.7
04:45 1024 30.24 854 25.22 8.3 46.9 75 4.2 39.5
04:50 1024 30.24 854 25.22 8.3 46.9 75 4 39.2
04:55 1024 30.24 853 25.19 8.3 47 74 3.9 39.1
05:00 1024 30.24 854 25.22 8.4 47.1 75 4.2 39.6
05:05 1024 30.24 853 25.19 8.5 47.3 73 4 39.2
05:10 1024 30.24 853 25.19 8.6 47.4 74 4.1 39.4
05:15 1024 30.24 853 25.19 8.7 47.7 72 4 39.2
05:20 1024 30.24 853 25.19 9.1 48.4 70 4 39.3
05:25 1024 30.24 854 25.22 9.3 48.8 69 3.9 39
05:30 1024 30.24 854 25.22 9.2 48.5 71 4.3 39.7
05:35 1024 30.24 854 25.22 9 48.1 71 4.1 39.4
05:40 1024 30.24 854 25.22 9.1 48.4 70 3.9 39.1
05:45 1024 30.24 854 25.22 9.3 48.7 69 3.9 39
05:50 1024 30.24 854 25.22 9.3 48.8 68 3.8 38.9
05:55 1024 30.24 854 25.22 9.6 49.2 68 4 39.2
06:00 1024 30.24 854 25.22 9.7 49.5 68 4.2 39.5
06:05 1024 30.24 854 25.22 9.8 49.6 68 4.2 39.6
06:10 1024 30.24 854 25.22 9.8 49.6 63 3.2 37.7
06:15 1024 30.24 854 25.22 10.1 50.2 63 3.5 38.2
06:20 1024 30.24 854 25.22 10.5 50.8 61 3.3 37.9
06:25 1024 30.24 854 25.22 10.7 51.3 60 3.4 38.2
06:30 1024 30.24 854 25.22 11.1 52 61 3.9 39
06:35 1024 30.24 854 25.22 11.4 52.4 62 4.3 39.7
06:40 1024 30.24 854 25.22 11.1 52 60 3.7 38.7
06:45 1024 30.24 854 25.22 11.4 52.5 60 3.9 39.1
06:50 1024 30.24 854 25.22 11.9 53.3 57 3.8 38.8
06:55 1024 30.24 854 25.22 11.8 53.3 58 4 39.2
07:00 1024 30.24 854 25.22 11.9 53.4 55 3.2 37.8
07:05 1024 30.24 854 25.22 12.6 54.6 55 3.9 38.9
07:10 1024 30.24 854 25.22 12.7 54.9 55 3.9 39
07:15 1024 30.24 854 25.22 12.7 54.8 56 4.2 39.5
07:20 1024 30.24 854 25.22 13 55.3 53 3.7 38.7
07:25 1024 30.24 854 25.22 12.6 54.7 59 4.8 40.7
07:30 1024 30.24 854 25.22 12.4 54.3 56 3.9 39
07:35 1025 30.27 854 25.22 11.9 53.4 58 4 39.1
07:40 1025 30.27 854 25.22 11.5 52.7 59 3.8 38.8
07:45 1025 30.27 854 25.22 11.8 53.2 59 4.1 39.4
07:50 1025 30.27 854 25.22 12 53.7 56 3.5 38.4
07:55 1025 30.27 854 25.22 12.3 54.1 57 4.2 39.5
08:00 1025 30.27 854 25.22 12.2 54 58 4.3 39.8
08:05 1025 30.27 854 25.22 11.5 52.8 62 4.4 40
08:10 1025 30.27 854 25.22 11.6 52.9 60 4.1 39.4
08:15 1025 30.27 854 25.22 11.9 53.4 58 4 39.3
08:20 1024 30.24 854 25.22 12.5 54.5 58 4.5 40.1
08:25 1024 30.24 854 25.22 12.1 53.8 57 4 39.1
08:30 1024 30.24 854 25.22 12.2 54 57 4 39.1
08:35 1024 30.24 854 25.22 12.6 54.6 56 4.1 39.4
08:40 1024 30.24 854 25.22 13.1 55.6 53 3.7 38.6
08:45 1024 30.24 854 25.22 14 57.2 50 3.9 39.1
08:50 1024 30.24 854 25.22 14.2 57.5 52 4.4 39.9
08:55 1024 30.24 854 25.22 13.7 56.7 55 4.9 40.9
09:00 1024 30.24 854 25.22 13 55.3 56 4.5 40.2
09:05 1024 30.24 854 25.22 12.8 55 54 3.7 38.6
09:10 1024 30.24 854 25.22 13.3 56 53 3.9 39.1
09:15 1024 30.24 854 25.22 13.6 56.5 51 3.6 38.5
09:20 1025 30.27 854 25.22 14 57.3 48 3.3 38
09:25 1025 30.27 854 25.22 14.2 57.6 50 4.1 39.4
09:30 1025 30.27 854 25.22 14.3 57.7 49 3.7 38.7
09:35 1025 30.27 854 25.22 14.4 57.9 47 3.2 37.8
09:40 1025 30.27 854 25.22 15 59.1 44 3 37.3
09:45 1025 30.27 854 25.22 14.9 58.8 45 3.3 37.9
09:50 1024 30.24 854 25.22 15.2 59.4 47 4 39.2
09:55 1024 30.24 854 25.22 15.4 59.7 46 4 39.2
10:00 1024 30.24 854 25.22 15.4 59.8 43 3 37.4
10:05 1024 30.24 854 25.22 15.4 59.7 47 4.4 39.8
10:10 1024 30.24 853 25.19 14.2 57.6 49 3.8 38.8
10:15 1024 30.24 853 25.19 15 59 46 3.5 38.3
10:20 1024 30.24 853 25.19 15.8 60.4 46 4.2 39.5
10:25 1024 30.24 853 25.19 16.3 61.3 44 4.1 39.3
10:30 1024 30.24 853 25.19 16.1 61.1 44 3.9 39
10:35 1024 30.24 853 25.19 16.2 61.2 46 4.8 40.6
10:40 1024 30.24 853 25.19 14.8 58.7 48 4 39.2
10:45 1024 30.24 853 25.19 16.1 61 43 3.5 38.4
10:50 1024 30.24 853 25.19 17.1 62.8 41 4 39.2
10:55 1024 30.24 853 25.19 17.3 63.2 42 4.4 40
11:00 1024 30.24 853 25.19 16.9 62.4 41 3.7 38.6
11:05 1024 30.24 853 25.19 17.2 62.9 40 3.7 38.7
11:10 1024 30.24 853 25.19 17.1 62.8 41 4 39.1
11:15 1024 30.24 853 25.19 17.4 63.3 40 3.8 38.8
11:20 1024 30.24 853 25.19 17.4 63.4 43 4.9 40.9
11:25 1024 30.24 853 25.19 16.8 62.3 45 5 41.1
11:30 1024 30.24 853 25.19 17.6 63.6 41 4.3 39.7
11:35 1024 30.24 853 25.19 18.1 64.6 41 4.6 40.3
11:40 1024 30.24 853 25.19 17 62.5 43 4.3 39.8
11:45 1024 30.24 853 25.19 17 62.7 43 4.4 40
11:50 1024 30.24 853 25.19 16.3 61.3 46 4.6 40.3
11:55 1024 30.24 853 25.19 15.5 59.8 47 4.2 39.5
12:00 1024 30.24 853 25.19 16 60.7 43 3.6 38.5
12:05 1024 30.24 853 25.19 17.3 63.1 40 3.8 38.9
12:10 1024 30.24 853 25.19 17.9 64.2 38 3.5 38.3
12:15 1024 30.24 853 25.19 17.5 63.5 43 5 40.9
12:20 1023 30.21 853 25.19 16.9 62.4 42 4.2 39.5
12:25 1024 30.24 853 25.19 17 62.6 43 4.5 40.1
12:30 1024 30.24 853 25.19 16.4 61.5 43 4 39.1
12:35 1023 30.21 853 25.19 16.6 61.8 43 4 39.1
12:40 1023 30.21 853 25.19 16.5 61.8 44 4.3 39.7
12:45 1023 30.21 852 25.16 17 62.5 41 3.8 38.9
12:50 1023 30.21 852 25.16 17.8 64 39 3.9 39
12:55 1023 30.21 852 25.16 17.7 63.9 40 4 39.1
13:00 1023 30.21 852 25.16 18 64.4 40 4.3 39.7
13:05 1023 30.21 852 25.16 17.6 63.7 41 4.4 39.9
13:10 1023 30.21 852 25.16 17.6 63.6 41 4.3 39.7
13:15 1023 30.21 852 25.16 17.3 63.2 43 4.7 40.5
13:20 1023 30.21 852 25.16 16.7 62 43 4.1 39.4
13:25 1023 30.21 852 25.16 16.5 61.8 43 4.1 39.3
13:30 1023 30.21 852 25.16 17.1 62.8 42 4.1 39.4
13:35 1023 30.21 852 25.16 17.6 63.7 41 4.2 39.6
13:40 1023 30.21 852 25.16 17.5 63.4 40 3.8 38.9
13:45 1023 30.21 852 25.16 17.3 63.2 43 4.6 40.3
13:50 1023 30.21 852 25.16 17.3 63.1 40 3.5 38.3
13:55 1023 30.21 852 25.16 17.3 63.2 41 4.2 39.6
14:00 1023 30.21 852 25.16 17.1 62.7 41 3.8 38.8
14:05 1023 30.21 852 25.16 17 62.5 41 3.9 39
14:10 1023 30.21 852 25.16 16.7 62 42 3.8 38.9
14:15 1023 30.21 852 25.16 16.8 62.3 41 3.6 38.4
14:20 1023 30.21 852 25.16 17.3 63.1 39 3.3 38
14:25 1023 30.21 852 25.16 18.3 65 38 3.8 38.9
14:30 1023 30.21 852 25.16 18.3 64.9 38 4 39.3
14:35 1023 30.21 852 25.16 18.7 65.6 35 2.9 37.3
14:40 1023 30.21 852 25.16 18.8 65.8 34 2.7 36.9
14:45 1023 30.21 852 25.16 19.2 66.6 36 3.8 38.8
14:50 1023 30.21 852 25.16 18.8 65.9 36 3.4 38.2
14:55 1023 30.21 852 25.16 19.8 67.6 32 2.9 37.2
15:00 1023 30.21 852 25.16 20 68 34 3.7 38.7
15:05 1023 30.21 852 25.16 19.2 66.6 35 3.4 38.1
15:10 1023 30.21 852 25.16 19.7 67.5 32 2.5 36.6
15:15 1023 30.21 852 25.16 20.1 68.1 33 3.3 37.9
15:20 1023 30.21 852 25.16 19.7 67.4 32 2.8 37.1
15:25 1023 30.21 852 25.16 20.7 69.3 29 2.4 36.3
15:30 1023 30.21 852 25.16 21 69.9 30 3.1 37.5
15:35 1023 30.21 852 25.16 20.5 69 32 3.2 37.8
15:40 1022 30.18 852 25.16 19.8 67.6 31 2.3 36.1
15:45 1022 30.18 852 25.16 20.4 68.8 31 3.1 37.5
15:50 1022 30.18 852 25.16 20.8 69.5 30 2.6 36.7
15:55 1022 30.18 852 25.16 21.8 71.3 28 2.5 36.5
16:00 1022 30.18 851 25.13 21.3 70.4 30 3.1 37.7
16:05 1022 30.18 851 25.13 21.2 70.1 28 2.3 36.1
16:10 1022 30.18 851 25.13 21.9 71.4 27 2.3 36.1
16:15 1022 30.18 851 25.13 21.3 70.3 30 3 37.4
16:20 1022 30.18 851 25.13 21.1 70 28 1.9 35.4
16:25 1022 30.18 851 25.13 21.8 71.2 26 1.8 35.3
16:30 1022 30.18 851 25.13 21.3 70.3 27 1.9 35.4
16:35 1022 30.18 851 25.13 21.4 70.5 25 0.9 33.7
16:40 1022 30.18 851 25.13 21.4 70.6 26 1.1 33.9
16:45 1022 30.18 851 25.13 21.5 70.7 24 0.4 32.8
16:50 1022 30.18 851 25.13 22.2 72 22 -0.4 31.2
16:55 1022 30.18 851 25.13 22.1 71.8 22 -0.6 30.9
17:00 1022 30.18 851 25.13 20.6 69.1 23 -1.2 29.8
17:05 1022 30.18 851 25.13 21 69.8 22 -1.3 29.6
17:10 1022 30.18 851 25.13 21 69.8 23 -0.7 30.8
17:15 1022 30.18 851 25.13 21.3 70.4 24 0.1 32.1
17:20 1022 30.18 851 25.13 21.3 70.3 23 -0.7 30.7
17:25 1022 30.18 851 25.13 21.6 70.9 23 -0.3 31.5
17:30 1022 30.18 851 25.13 21.6 70.9 23 -0.4 31.3
17:35 1022 30.18 851 25.13 21.4 70.6 23 -0.6 31
17:40 1022 30.18 851 25.13 21.7 71.1 22 -0.9 30.3
17:45 1022 30.18 851 25.13 22 71.6 22 -0.2 31.6
17:50 1021 30.15 851 25.13 21.6 71 24 0.6 33.1
17:55 1021 30.15 851 25.13 21.3 70.3 24 0.1 32.2
18:00 1021 30.15 851 25.13 21.2 70.2 24 0.3 32.5
18:05 1021 30.15 851 25.13 20.9 69.5 25 0.2 32.4
18:10 1021 30.15 851 25.13 20.1 68.1 26 -0 32
18:15 1021 30.15 851 25.13 19.7 67.4 26 -0.1 31.8
18:20 1021 30.15 851 25.13 19.7 67.5 25 -0.6 30.9
18:25 1022 30.18 851 25.13 20 67.9 24 -0.8 30.5
18:30 1022 30.18 851 25.13 20 67.9 25 -0.5 31
18:35 1022 30.18 851 25.13 19.4 67 25 -0.9 30.3
18:40 1022 30.18 851 25.13 19.2 66.6 27 -0.3 31.5
18:45 1022 30.18 851 25.13 19.2 66.6 26 -0.5 31
18:50 1022 30.18 851 25.13 19.3 66.7 26 -0.5 31.2
18:55 1022 30.18 851 25.13 19.3 66.8 26 -0.5 31.2
19:00 1022 30.18 851 25.13 19.3 66.7 25 -1 30.3
19:05 1022 30.18 851 25.13 19.1 66.4 25 -1 30.2
19:10 1022 30.18 851 25.13 19.1 66.3 26 -0.9 30.3
19:15 1022 30.18 851 25.13 19 66.3 26 -0.9 30.5
19:20 1022 30.18 851 25.13 19 66.1 24 -2 28.4
19:25 1022 30.18 851 25.13 19 66.1 25 -1.5 29.3
19:30 1022 30.18 851 25.13 18.8 65.9 26 -0.7 30.7
19:35 1022 30.18 851 25.13 18.8 65.8 26 -1 30.2
19:40 1022 30.18 851 25.13 18.7 65.7 27 -0.6 31
19:45 1021 30.15 851 25.13 18.6 65.4 28 -0.3 31.5
19:50 1022 30.18 851 25.13 18.4 65 29 0.2 32.4
19:55 1022 30.18 851 25.13 18.2 64.7 31 1 33.7
20:00 1022 30.18 851 25.13 17.8 64.1 32 1.1 34
20:05 1022 30.18 851 25.13 17.5 63.6 30 -0 32
20:10 1022 30.18 851 25.13 17.7 63.9 28 -0.8 30.5
20:15 1021 30.15 851 25.13 17.9 64.1 31 0.5 32.9
20:20 1021 30.15 851 25.13 17.7 63.8 36 2.4 36.3
20:25 1021 30.15 851 25.13 17.1 62.8 40 3.5 38.4
20:30 1021 30.15 851 25.13 16.5 61.6 44 4.2 39.5
20:35 1021 30.15 851 25.13 15.5 59.9 46 4.1 39.3
20:40 1021 30.15 851 25.13 14.9 58.9 50 4.6 40.3
20:45 1022 30.18 851 25.13 14.3 57.7 53 4.9 40.9
20:50 1022 30.18 851 25.13 13.7 56.7 55 4.8 40.7
20:55 1022 30.18 851 25.13 13.3 56 54 4.2 39.6
21:00 1022 30.18 851 25.13 13.1 55.6 50 3 37.4
21:05 1022 30.18 851 25.13 13.3 56 51 3.4 38.2
21:10 1022 30.18 851 25.13 13.2 55.8 50 3.2 37.7
21:15 1022 30.18 851 25.13 13.1 55.5 52 3.5 38.4
21:20 1022 30.18 851 25.13 12.8 55 53 3.4 38.1
21:25 1022 30.18 851 25.13 12.6 54.7 52 3.2 37.7
21:30 1022 30.18 851 25.13 12.5 54.5 53 3.2 37.7
21:35 1022 30.18 851 25.13 12.3 54.1 52 2.8 37.1
21:40 1022 30.18 851 25.13 12.2 53.9 51 2.5 36.5
21:45 1022 30.18 851 25.13 12.1 53.9 51 2.3 36.2
21:50 1022 30.18 851 25.13 12.2 53.9 51 2.3 36.2
21:55 1021 30.15 851 25.13 12.2 54 51 2.3 36.2
22:00 1021 30.15 851 25.13 12 53.5 52 2.5 36.5
22:05 1021 30.15 851 25.13 11.7 53 53 2.4 36.3
22:10 1021 30.15 851 25.13 11.6 52.8 53 2.3 36.1
22:15 1021 30.15 850 25.1 11.5 52.6 53 2.2 35.9
22:20 1021 30.15 851 25.13 11.3 52.3 53 2 35.6
22:25 1021 30.15 851 25.13 11.2 52.2 53 2.1 35.8
22:30 1021 30.15 850 25.1 11.1 51.9 53 2 35.5
22:35 1021 30.15 850 25.1 10.9 51.7 51 1.4 34.4
22:40 1021 30.15 850 25.1 11.1 51.9 51 1.4 34.5
22:45 1021 30.15 850 25.1 11.1 51.9 51 1.3 34.4
22:50 1021 30.15 850 25.1 11.1 52.1 52 1.6 34.9
22:55 1021 30.15 850 25.1 10.9 51.6 54 1.9 35.4
23:00 1021 30.15 850 25.1 10.5 51 54 1.7 35
23:05 1021 30.15 850 25.1 10.2 50.4 55 1.5 34.8
23:10 1021 30.15 850 25.1 10.2 50.3 54 1.4 34.6
23:15 1021 30.15 850 25.1 10.3 50.5 53 1.1 34
23:20 1021 30.15 850 25.1 10.5 51 53 1.3 34.3
23:25 1021 30.15 850 25.1 10.3 50.5 53 1.2 34.2
23:30 1021 30.15 850 25.1 10.1 50.3 52 0.9 33.5
23:35 1021 30.15 850 25.1 10.4 50.7 51 0.8 33.5
23:40 1021 30.15 850 25.1 10.4 50.7 52 0.9 33.6
23:45 1021 30.15 850 25.1 10.2 50.4 53 1.1 33.9
23:50 1021 30.15 850 25.1 10.3 50.5 52 0.9 33.6
23:55 1021 30.15 850 25.1 10.4 50.7 52 1.1 34
24:00 1021 30.15 850 25.1 10.4 50.7 50 0.5 32.9